createdAt,value
2018-09-21T00:01:00.055Z,5.80
2018-09-21T00:03:29.172Z,5.20
2018-09-21T00:05:58.287Z,6.50
2018-09-21T00:08:27.267Z,6.30
2018-09-21T00:10:56.356Z,5.97
2018-09-21T00:13:25.586Z,6.93
2018-09-21T00:15:55.808Z,6.33
2018-09-21T00:18:24.987Z,6.10
2018-09-21T00:20:54.139Z,6.60
2018-09-21T00:23:23.500Z,5.13
2018-09-21T00:25:53.409Z,6.00
2018-09-21T00:28:22.714Z,6.50
2018-09-21T00:30:51.905Z,6.23
2018-09-21T00:33:20.959Z,5.53
2018-09-21T00:35:50.190Z,6.37
2018-09-21T00:38:20.029Z,6.90
2018-09-21T00:40:49.280Z,5.90
2018-09-21T00:43:19.316Z,5.47
2018-09-21T00:45:48.413Z,7.67
2018-09-21T00:48:17.596Z,6.40
2018-09-21T00:50:46.686Z,6.17
2018-09-21T00:53:15.921Z,5.63
2018-09-21T00:55:45.277Z,6.60
2018-09-21T00:58:14.769Z,6.30
2018-09-21T01:00:43.832Z,5.03
2018-09-21T01:03:13.184Z,6.63
2018-09-21T01:05:42.658Z,6.80
2018-09-21T01:08:12.024Z,6.43
2018-09-21T01:10:41.243Z,6.53
2018-09-21T01:13:10.323Z,6.13
2018-09-21T01:15:39.451Z,5.93
2018-09-21T01:18:08.594Z,7.47
2018-09-21T01:20:37.718Z,6.67
2018-09-21T01:23:07.012Z,6.70
2018-09-21T01:25:36.428Z,7.10
2018-09-21T01:28:05.929Z,6.87
2018-09-21T01:30:34.899Z,6.10
2018-09-21T01:33:03.920Z,6.10
2018-09-21T01:35:33.174Z,7.07
2018-09-21T01:38:02.109Z,5.80
2018-09-21T01:40:31.173Z,6.80
2018-09-21T01:43:00.232Z,6.00
2018-09-21T01:45:29.367Z,6.50
2018-09-21T01:47:58.716Z,7.57
2018-09-21T01:50:27.951Z,6.17
2018-09-21T01:52:57.615Z,5.93
2018-09-21T01:55:26.647Z,6.90
2018-09-21T01:57:55.955Z,6.00
2018-09-21T02:00:25.102Z,5.57
2018-09-21T02:02:54.049Z,6.07
2018-09-21T02:05:23.733Z,5.60
2018-09-21T02:07:53.000Z,6.30
2018-09-21T02:10:22.025Z,5.60
2018-09-21T02:12:50.996Z,7.10
2018-09-21T02:15:20.017Z,7.00
2018-09-21T02:17:49.138Z,7.70
2018-09-21T02:20:18.272Z,6.57
2018-09-21T02:22:47.337Z,6.87
2018-09-21T02:25:16.446Z,5.67
2018-09-21T02:27:45.461Z,6.73
2018-09-21T02:30:14.853Z,5.87
2018-09-21T02:32:43.921Z,7.10
2018-09-21T02:35:12.880Z,7.43
2018-09-21T02:37:42.028Z,5.50
2018-09-21T02:40:11.183Z,6.90
2018-09-21T02:42:40.142Z,7.00
2018-09-21T02:45:09.398Z,6.90
2018-09-21T02:47:38.400Z,7.50
2018-09-21T02:50:07.784Z,7.37
2018-09-21T02:52:36.806Z,6.53
2018-09-21T02:55:05.814Z,6.83
2018-09-21T02:57:34.863Z,6.27
2018-09-21T03:00:04.052Z,5.80
2018-09-21T03:02:33.245Z,6.60
2018-09-21T03:05:02.240Z,6.90
2018-09-21T03:07:31.305Z,6.33
2018-09-21T03:10:00.471Z,7.60
2018-09-21T03:12:29.443Z,6.80
2018-09-21T03:14:58.439Z,6.37
2018-09-21T03:17:27.489Z,7.00
2018-09-21T03:19:56.506Z,6.30
2018-09-21T03:22:25.556Z,7.23
2018-09-21T03:24:54.524Z,6.70
2018-09-21T03:27:23.606Z,6.40
2018-09-21T03:29:52.571Z,6.13
2018-09-21T03:32:21.685Z,7.10
2018-09-21T03:34:50.785Z,6.83
2018-09-21T03:37:19.711Z,6.00
2018-09-21T03:39:48.776Z,6.60
2018-09-21T03:42:17.973Z,6.87
2018-09-21T03:44:47.359Z,7.27
2018-09-21T03:47:16.469Z,6.97
2018-09-21T03:49:45.477Z,6.60
2018-09-21T03:52:14.647Z,6.37
2018-09-21T03:54:43.704Z,6.60
2018-09-21T03:57:12.791Z,6.43
2018-09-21T03:59:42.082Z,7.80
2018-09-21T04:02:11.135Z,6.50
2018-09-21T04:04:42.937Z,7.03
2018-09-21T04:07:12.516Z,5.80
2018-09-21T04:09:41.608Z,6.30
2018-09-21T04:12:11.424Z,7.13
2018-09-21T04:14:40.539Z,7.33
2018-09-21T04:17:09.737Z,7.70
2018-09-21T04:19:38.877Z,7.30
2018-09-21T04:22:07.941Z,6.93
2018-09-21T04:24:37.390Z,8.30
2018-09-21T04:27:06.469Z,7.50
2018-09-21T04:29:35.533Z,8.00
2018-09-21T04:32:04.549Z,7.17
2018-09-21T04:34:33.559Z,7.33
2018-09-21T04:37:02.666Z,6.90
2018-09-21T04:39:31.636Z,8.37
2018-09-21T04:42:00.766Z,6.97
2018-09-21T04:44:30.285Z,5.67
2018-09-21T04:46:59.858Z,7.40
2018-09-21T04:49:29.120Z,8.00
2018-09-21T04:51:58.672Z,6.60
2018-09-21T04:54:27.977Z,7.37
2018-09-21T04:56:58.386Z,6.57
2018-09-21T04:59:27.436Z,7.43
2018-09-21T05:01:56.504Z,6.70
2018-09-21T05:04:25.583Z,7.03
2018-09-21T05:06:55.076Z,7.50
2018-09-21T05:09:24.220Z,6.63
2018-09-21T05:11:54.884Z,7.43
2018-09-21T05:14:24.264Z,8.37
2018-09-21T05:16:53.285Z,9.30
2018-09-21T05:19:23.240Z,9.50
2018-09-21T05:21:52.246Z,8.20
2018-09-21T05:24:21.472Z,8.33
2018-09-21T05:26:51.969Z,9.10
2018-09-21T05:29:21.018Z,10.27
2018-09-21T05:31:50.646Z,8.63
2018-09-21T05:34:19.845Z,8.40
2018-09-21T05:36:48.983Z,6.50
2018-09-21T05:39:18.073Z,5.87
2018-09-21T05:41:47.155Z,6.73
2018-09-21T05:44:16.121Z,6.60
2018-09-21T05:46:45.197Z,5.43
2018-09-21T05:49:14.290Z,5.30
2018-09-21T05:51:44.433Z,5.40
2018-09-21T05:54:14.011Z,6.03
2018-09-21T05:56:44.677Z,5.70
2018-09-21T05:59:13.742Z,6.80
2018-09-21T06:01:42.724Z,6.20
2018-09-21T06:04:11.748Z,6.80
2018-09-21T06:06:40.896Z,7.73
2018-09-21T06:09:12.134Z,6.00
2018-09-21T06:11:41.765Z,5.90
2018-09-21T06:14:11.707Z,5.93
2018-09-21T06:16:41.142Z,6.07
2018-09-21T06:19:10.148Z,6.97
2018-09-21T06:21:39.232Z,7.70
2018-09-21T06:24:08.432Z,8.17
2018-09-21T06:26:37.430Z,7.30
2018-09-21T06:29:06.530Z,7.90
2018-09-21T06:31:35.656Z,8.60
2018-09-21T06:34:04.754Z,8.73
2018-09-21T06:36:33.769Z,8.83
2018-09-21T06:39:02.795Z,8.70
2018-09-21T06:41:31.831Z,7.70
2018-09-21T06:44:01.190Z,7.10
2018-09-21T06:46:30.490Z,9.03
2018-09-21T06:48:59.494Z,8.90
2018-09-21T06:51:28.518Z,8.40
2018-09-21T06:53:57.491Z,7.30
2018-09-21T06:56:26.505Z,8.07
2018-09-21T06:58:55.932Z,8.50
2018-09-21T07:01:25.085Z,8.23
2018-09-21T07:03:54.572Z,8.20
2018-09-21T07:06:23.668Z,7.93
2018-09-21T07:08:52.868Z,7.70
2018-09-21T07:11:21.860Z,7.73
2018-09-21T07:13:50.963Z,9.60
2018-09-21T07:16:19.944Z,7.83
2018-09-21T07:18:50.505Z,7.10
2018-09-21T07:21:19.463Z,8.80
2018-09-21T07:23:48.493Z,7.90
2018-09-21T07:26:17.529Z,8.07
2018-09-21T07:28:47.579Z,7.57
2018-09-21T07:31:16.809Z,8.40
2018-09-21T07:33:45.808Z,8.00
2018-09-21T07:36:15.177Z,8.37
2018-09-21T07:38:44.595Z,7.50
2018-09-21T07:41:13.533Z,8.00
2018-09-21T07:43:42.869Z,7.10
2018-09-21T07:46:12.179Z,6.47
2018-09-21T07:48:41.780Z,6.60
2018-09-21T07:51:10.744Z,8.17
2018-09-21T07:53:40.040Z,7.30
2018-09-21T07:56:09.055Z,7.13
2018-09-21T07:58:38.032Z,7.57
2018-09-21T08:01:07.121Z,5.93
2018-09-21T08:03:36.194Z,6.80
2018-09-21T08:06:05.406Z,8.70
2018-09-21T08:08:34.466Z,6.33
2018-09-21T08:11:03.543Z,7.13
2018-09-21T08:13:32.951Z,7.17
2018-09-21T08:16:02.453Z,6.00
2018-09-21T08:18:31.796Z,7.47
2018-09-21T08:21:00.772Z,6.50
2018-09-21T08:23:29.878Z,6.70
2018-09-21T08:25:58.906Z,6.77
2018-09-21T08:28:27.945Z,7.23
2018-09-21T08:30:57.105Z,7.47
2018-09-21T08:33:27.148Z,6.80
2018-09-21T08:35:57.062Z,7.10
2018-09-21T08:38:26.365Z,6.47
2018-09-21T08:40:55.498Z,7.53
2018-09-21T08:43:24.624Z,7.63
2018-09-21T08:45:53.609Z,7.17
2018-09-21T08:48:22.696Z,7.90
2018-09-21T08:50:51.710Z,7.60
2018-09-21T08:53:20.922Z,7.23
2018-09-21T08:55:50.073Z,7.90
2018-09-21T08:58:19.075Z,7.17
2018-09-21T09:00:48.197Z,7.40
2018-09-21T09:03:17.363Z,7.07
2018-09-21T09:05:52.239Z,8.03
2018-09-21T09:08:22.842Z,7.33
2018-09-21T09:10:52.223Z,6.97
2018-09-21T09:13:21.258Z,6.30
2018-09-21T09:15:51.003Z,6.73
2018-09-21T09:18:20.001Z,7.33
2018-09-21T09:20:49.062Z,8.57
2018-09-21T09:23:18.200Z,8.03
2018-09-21T09:25:47.688Z,7.13
2018-09-21T09:28:16.989Z,6.80
2018-09-21T09:30:46.087Z,7.50
2018-09-21T09:33:15.028Z,6.63
2018-09-21T09:35:44.056Z,7.00
2018-09-21T09:38:13.039Z,7.13
2018-09-21T09:40:42.069Z,7.70
2018-09-21T09:43:11.087Z,7.40
2018-09-21T09:45:40.142Z,6.77
2018-09-21T09:48:09.156Z,6.57
2018-09-21T09:50:38.165Z,7.70
2018-09-21T09:53:07.336Z,7.77
2018-09-21T09:55:36.318Z,6.40
2018-09-21T09:58:05.394Z,6.93
2018-09-21T10:00:36.422Z,6.90
2018-09-21T10:03:05.443Z,6.30
2018-09-21T10:05:34.417Z,6.53
2018-09-21T10:08:03.438Z,6.67
2018-09-21T10:10:32.418Z,7.10
2018-09-21T10:13:01.436Z,6.57
2018-09-21T10:15:30.579Z,6.60
2018-09-21T10:18:00.574Z,7.77
2018-09-21T10:20:29.717Z,6.77
2018-09-21T10:22:59.032Z,6.40
2018-09-21T10:25:28.515Z,7.27
2018-09-21T10:27:58.018Z,6.27
2018-09-21T10:30:26.976Z,6.13
2018-09-21T10:32:55.968Z,5.83
2018-09-21T10:35:25.131Z,5.87
2018-09-21T10:37:54.227Z,5.70
2018-09-21T10:40:23.635Z,5.50
2018-09-21T10:42:52.964Z,5.37
2018-09-21T10:45:22.154Z,5.77
2018-09-21T10:47:51.416Z,5.40
2018-09-21T10:50:21.697Z,6.70
2018-09-21T10:52:50.914Z,5.97
2018-09-21T10:55:20.085Z,6.63
2018-09-21T10:57:49.275Z,4.73
2018-09-21T11:00:18.238Z,6.13
2018-09-21T11:02:47.424Z,5.17
2018-09-21T11:05:16.418Z,4.87
2018-09-21T11:07:45.680Z,5.53
2018-09-21T11:10:14.812Z,5.23
2018-09-21T11:12:43.914Z,5.90
2018-09-21T11:15:13.025Z,5.83
2018-09-21T11:17:42.160Z,5.53
2018-09-21T11:20:11.292Z,5.00
2018-09-21T11:22:41.403Z,5.10
2018-09-21T11:25:10.474Z,5.50
2018-09-21T11:27:39.556Z,5.27
2018-09-21T11:30:08.633Z,5.00
2018-09-21T11:32:37.732Z,4.43
2018-09-21T11:35:06.903Z,5.50
2018-09-21T11:37:35.977Z,6.00
2018-09-21T11:40:05.125Z,5.53
2018-09-21T11:42:34.208Z,4.80
2018-09-21T11:45:03.255Z,5.30
2018-09-21T11:47:32.446Z,4.60
2018-09-21T11:50:01.502Z,4.37
2018-09-21T11:52:30.723Z,4.77
2018-09-21T11:54:59.727Z,4.80
2018-09-21T11:57:28.904Z,4.93
2018-09-21T11:59:58.430Z,5.20
2018-09-21T12:02:27.472Z,4.97
2018-09-21T12:04:57.402Z,4.80
2018-09-21T12:07:27.110Z,4.73
2018-09-21T12:09:57.281Z,4.23
2018-09-21T12:12:26.562Z,4.30
2018-09-21T12:14:55.702Z,4.30
2018-09-21T12:17:24.800Z,4.17
2018-09-21T12:19:54.096Z,4.03
2018-09-21T12:22:23.535Z,4.33
2018-09-21T12:24:52.937Z,4.50
2018-09-21T12:27:22.389Z,4.83
2018-09-21T12:29:51.534Z,3.93
2018-09-21T12:32:21.517Z,4.20
2018-09-21T12:34:50.705Z,3.40
2018-09-21T12:37:19.914Z,4.37
2018-09-21T12:39:49.743Z,4.23
2018-09-21T12:42:18.837Z,4.50
2018-09-21T12:44:48.090Z,5.00
2018-09-21T12:47:17.135Z,4.10
2018-09-21T12:49:46.738Z,4.13
2018-09-21T12:52:15.896Z,4.70
2018-09-21T12:54:45.709Z,3.57
2018-09-21T12:57:14.810Z,4.17
2018-09-21T12:59:43.921Z,3.60
2018-09-21T13:02:13.029Z,3.60
2018-09-21T13:04:42.214Z,3.43
2018-09-21T13:07:11.734Z,3.73
2018-09-21T13:09:40.819Z,3.60
2018-09-21T13:12:10.012Z,3.70
2018-09-21T13:14:39.127Z,3.80
2018-09-21T13:17:08.174Z,3.77
2018-09-21T13:19:37.189Z,4.00
2018-09-21T13:22:06.243Z,4.10
2018-09-21T13:24:35.355Z,3.77
2018-09-21T13:27:04.463Z,4.07
2018-09-21T13:29:33.592Z,3.40
2018-09-21T13:32:02.787Z,3.93
2018-09-21T13:34:31.898Z,4.10
2018-09-21T13:37:00.992Z,3.73
2018-09-21T13:39:30.201Z,3.77
2018-09-21T13:41:59.436Z,4.10
2018-09-21T13:44:28.835Z,3.87
2018-09-21T13:46:58.376Z,4.80
2018-09-21T13:49:27.584Z,3.90
2018-09-21T13:51:56.687Z,4.00
2018-09-21T13:54:25.834Z,4.57
2018-09-21T13:56:54.990Z,3.57
2018-09-21T13:59:24.107Z,3.73
2018-09-21T14:01:53.317Z,4.80
2018-09-21T14:04:22.414Z,4.43
2018-09-21T14:06:53.005Z,3.63
2018-09-21T14:09:22.168Z,3.90
2018-09-21T14:11:51.339Z,4.23
2018-09-21T14:14:21.105Z,4.17
2018-09-21T14:16:50.217Z,4.57
2018-09-21T14:19:19.436Z,3.50
2018-09-21T14:21:48.539Z,3.57
2018-09-21T14:24:18.162Z,4.60
2018-09-21T14:26:47.556Z,3.43
2018-09-21T14:29:16.764Z,3.70
2018-09-21T14:31:46.000Z,3.57
2018-09-21T14:34:15.053Z,3.30
2018-09-21T14:36:44.154Z,3.30
2018-09-21T14:39:13.205Z,3.57
2018-09-21T14:41:42.243Z,3.87
2018-09-21T14:44:11.410Z,4.27
2018-09-21T14:46:40.646Z,4.13
2018-09-21T14:49:09.764Z,4.20
2018-09-21T14:51:38.903Z,3.97
2018-09-21T14:54:07.973Z,4.27
2018-09-21T14:56:37.060Z,4.10
2018-09-21T14:59:06.101Z,3.47
2018-09-21T15:01:35.602Z,3.33
2018-09-21T15:04:04.916Z,3.93
2018-09-21T15:06:34.418Z,3.47
2018-09-21T15:09:03.606Z,4.80
2018-09-21T15:11:32.810Z,4.03
2018-09-21T15:14:02.009Z,5.37
2018-09-21T15:16:31.161Z,3.87
2018-09-21T15:19:00.224Z,3.87
2018-09-21T15:21:29.331Z,3.60
2018-09-21T15:23:58.478Z,4.13
2018-09-21T15:26:27.579Z,3.90
2018-09-21T15:28:56.582Z,3.60
2018-09-21T15:31:26.006Z,3.87
2018-09-21T15:33:55.057Z,4.20
2018-09-21T15:36:24.300Z,3.40
2018-09-21T15:38:53.389Z,4.17
2018-09-21T15:41:23.041Z,4.00
2018-09-21T15:43:52.076Z,4.53
2018-09-21T15:46:21.104Z,4.23
2018-09-21T15:48:51.715Z,3.40
2018-09-21T15:51:20.821Z,3.30
2018-09-21T15:53:49.841Z,3.80
2018-09-21T15:56:18.937Z,4.43
2018-09-21T15:58:49.965Z,3.70
2018-09-21T16:01:19.097Z,3.60
2018-09-21T16:03:48.156Z,4.33
2018-09-21T16:06:17.340Z,4.47
2018-09-21T16:08:47.377Z,5.23
2018-09-21T16:11:16.455Z,3.20
2018-09-21T16:13:45.622Z,5.17
2018-09-21T16:16:14.970Z,5.53
2018-09-21T16:18:44.096Z,4.23
2018-09-21T16:21:13.147Z,4.57
2018-09-21T16:23:42.335Z,5.10
2018-09-21T16:26:11.630Z,4.60
2018-09-21T16:28:40.981Z,4.23
2018-09-21T16:31:10.098Z,4.87
2018-09-21T16:33:39.122Z,4.80
2018-09-21T16:36:08.270Z,4.87
2018-09-21T16:38:37.529Z,4.97
2018-09-21T16:41:06.881Z,4.13
2018-09-21T16:43:36.846Z,4.77
2018-09-21T16:46:06.306Z,4.97
2018-09-21T16:48:35.428Z,4.90
2018-09-21T16:51:04.703Z,5.43
2018-09-21T16:53:34.107Z,4.60
2018-09-21T16:56:03.165Z,4.40
2018-09-21T16:58:32.343Z,4.07
2018-09-21T17:01:01.356Z,4.73
2018-09-21T17:03:30.839Z,4.80
2018-09-21T17:06:01.066Z,5.03
2018-09-21T17:08:30.829Z,4.30
2018-09-21T17:10:59.936Z,4.77
2018-09-21T17:13:29.091Z,4.53
2018-09-21T17:15:58.571Z,4.67
2018-09-21T17:18:27.768Z,4.37
2018-09-21T17:20:56.794Z,5.27
2018-09-21T17:23:25.935Z,5.00
2018-09-21T17:25:55.132Z,4.83
2018-09-21T17:28:24.206Z,5.10
2018-09-21T17:30:53.497Z,4.60
2018-09-21T17:33:23.672Z,4.70
2018-09-21T17:35:54.134Z,5.00
2018-09-21T17:38:24.058Z,4.53
2018-09-21T17:40:53.597Z,4.53
2018-09-21T17:43:23.141Z,4.53
2018-09-21T17:45:54.017Z,4.30
2018-09-21T17:48:25.085Z,5.50
2018-09-21T17:50:55.229Z,4.87
2018-09-21T17:53:25.471Z,5.87
2018-09-21T17:55:56.393Z,5.77
2018-09-21T17:58:27.376Z,5.50
2018-09-21T18:00:57.045Z,4.80
2018-09-21T18:03:32.964Z,4.63
2018-09-21T18:06:03.466Z,5.13
2018-09-21T18:08:34.263Z,4.60
2018-09-21T18:11:03.939Z,5.40
2018-09-21T18:13:34.835Z,4.30
2018-09-21T18:16:04.429Z,4.50
2018-09-21T18:18:34.106Z,5.70
2018-09-21T18:21:05.819Z,6.70
2018-09-21T18:23:36.998Z,4.97
2018-09-21T18:26:09.076Z,4.60
2018-09-21T18:28:40.323Z,4.63
2018-09-21T18:31:10.043Z,5.07
2018-09-21T18:33:41.000Z,5.60
2018-09-21T18:36:10.675Z,5.30
2018-09-21T18:38:40.120Z,5.37
2018-09-21T18:41:18.637Z,5.73
2018-09-21T18:43:48.061Z,5.87
2018-09-21T18:46:17.525Z,6.17
2018-09-21T18:48:47.883Z,5.70
2018-09-21T18:51:19.079Z,5.90
2018-09-21T18:53:50.661Z,5.90
2018-09-21T18:56:20.190Z,6.63
2018-09-21T18:58:51.331Z,5.30
2018-09-21T19:01:21.133Z,6.40
2018-09-21T19:03:50.314Z,6.20
2018-09-21T19:06:19.540Z,5.63
2018-09-21T19:08:53.508Z,6.10
2018-09-21T19:11:23.297Z,5.77
2018-09-21T19:13:52.554Z,5.90
2018-09-21T19:16:21.794Z,5.77
2018-09-21T19:18:51.120Z,5.70
2018-09-21T19:21:20.409Z,6.60
2018-09-21T19:23:49.885Z,7.13
2018-09-21T19:26:19.218Z,6.50
2018-09-21T19:28:48.557Z,6.77
2018-09-21T19:31:18.301Z,6.93
2018-09-21T19:33:47.608Z,7.43
2018-09-21T19:36:17.059Z,6.33
2018-09-21T19:38:48.325Z,6.73
2018-09-21T19:41:17.819Z,7.50
2018-09-21T19:43:47.287Z,7.70
2018-09-21T19:46:16.693Z,7.17
2018-09-21T19:48:45.916Z,10.60
2018-09-21T19:51:15.529Z,6.40
2018-09-21T19:53:45.071Z,7.67
2018-09-21T19:56:14.414Z,7.00
2018-09-21T19:58:44.107Z,5.90
2018-09-21T20:01:14.363Z,6.70
2018-09-21T20:03:44.311Z,6.43
2018-09-21T20:06:15.194Z,6.80
2018-09-21T20:08:45.068Z,7.23
2018-09-21T20:11:14.342Z,8.10
2018-09-21T20:13:43.625Z,7.63
2018-09-21T20:16:13.264Z,9.90
2018-09-21T20:18:42.408Z,10.00
2018-09-21T20:21:12.063Z,8.60
2018-09-21T20:23:41.271Z,9.47
2018-09-21T20:26:10.536Z,9.30
2018-09-21T20:28:39.971Z,9.80
2018-09-21T20:31:15.084Z,8.43
2018-09-21T20:33:44.265Z,8.27
2018-09-21T20:36:13.697Z,8.60
2018-09-21T20:38:42.773Z,7.20
2018-09-21T20:41:11.879Z,7.87
2018-09-21T20:43:41.728Z,8.23
2018-09-21T20:46:14.004Z,8.37
2018-09-21T20:48:43.250Z,8.23
2018-09-21T20:51:12.438Z,8.37
2018-09-21T20:53:41.626Z,8.57
2018-09-21T20:56:10.710Z,8.63
2018-09-21T20:58:39.928Z,8.00
2018-09-21T21:01:09.253Z,8.23
2018-09-21T21:03:38.517Z,8.83
2018-09-21T21:06:08.522Z,7.97
2018-09-21T21:08:37.693Z,8.97
2018-09-21T21:11:07.137Z,8.73
2018-09-21T21:13:36.973Z,7.67
2018-09-21T21:16:06.219Z,8.50
2018-09-21T21:18:35.695Z,9.20
2018-09-21T21:21:04.816Z,8.27
2018-09-21T21:23:33.903Z,8.00
2018-09-21T21:26:03.120Z,8.50
2018-09-21T21:28:32.252Z,8.83
2018-09-21T21:31:01.372Z,8.07
2018-09-21T21:33:30.630Z,8.60
2018-09-21T21:35:59.813Z,7.80
2018-09-21T21:38:29.482Z,7.93
2018-09-21T21:40:58.877Z,8.30
2018-09-21T21:43:28.080Z,7.80
2018-09-21T21:45:57.162Z,7.80
2018-09-21T21:48:26.349Z,8.37
2018-09-21T21:50:55.432Z,9.23
2018-09-21T21:53:24.693Z,8.90
2018-09-21T21:55:53.780Z,8.07
2018-09-21T21:58:22.891Z,8.30
2018-09-21T22:00:57.525Z,9.13
2018-09-21T22:03:26.651Z,9.97
2018-09-21T22:05:55.721Z,8.40
2018-09-21T22:08:24.928Z,9.20
2018-09-21T22:10:54.076Z,8.80
2018-09-21T22:13:28.516Z,7.80
2018-09-21T22:15:58.025Z,7.33
2018-09-21T22:18:27.529Z,8.17
2018-09-21T22:20:56.629Z,7.43
2018-09-21T22:23:25.735Z,8.10
2018-09-21T22:25:54.835Z,8.30
2018-09-21T22:28:23.865Z,9.70
2018-09-21T22:30:52.958Z,7.93
2018-09-21T22:33:22.064Z,8.83
2018-09-21T22:35:51.336Z,9.33
2018-09-21T22:38:20.368Z,7.83
2018-09-21T22:40:49.519Z,7.97
2018-09-21T22:43:18.896Z,7.87
2018-09-21T22:45:48.399Z,7.87
2018-09-21T22:48:18.522Z,8.40
2018-09-21T22:50:47.575Z,9.20
2018-09-21T22:53:16.593Z,7.80
2018-09-21T22:55:46.285Z,8.80
2018-09-21T22:58:15.395Z,9.13
2018-09-21T23:00:44.694Z,10.10
2018-09-21T23:03:14.225Z,8.63
2018-09-21T23:05:43.627Z,8.50
2018-09-21T23:08:14.465Z,7.97
2018-09-21T23:10:43.562Z,8.40
2018-09-21T23:13:12.583Z,9.20
2018-09-21T23:15:41.669Z,9.50
2018-09-21T23:18:11.053Z,8.87
2018-09-21T23:20:40.089Z,9.37
2018-09-21T23:23:09.060Z,8.23
2018-09-21T23:25:38.622Z,4.23
2018-09-21T23:28:08.869Z,3.60
2018-09-21T23:30:38.127Z,1.30
2018-09-21T23:33:08.091Z,0.70
2018-09-21T23:35:37.538Z,0.80
2018-09-21T23:38:06.893Z,1.10
2018-09-21T23:40:36.075Z,1.30
2018-09-21T23:43:05.699Z,0.60
2018-09-21T23:45:35.190Z,1.07
2018-09-21T23:48:04.507Z,0.40
2018-09-21T23:50:33.638Z,0.90
2018-09-21T23:53:03.109Z,0.70
2018-09-21T23:55:32.721Z,0.60
2018-09-21T23:58:02.315Z,0.70
